<?xml version="1.0" encoding="UTF-8" standalone="no" ?>
<gpx xmlns="http://www.topografix.com/GPX/1/1" xmlns:xsi="http://www.w3.org/2001/XMLSchema-instance" xsi:schemaLocation="http://www.topografix.com/GPX/1/1 http://www.topografix.com/GPX/1/1/gpx.xsd" version="1.1" creator="VisuGPX - https://www.visugpx.com">
  <metadata>
    <name>Les crets du Pilat de la croix de Trève</name>
    <desc><![CDATA[Les horaires me paraisse loufoque]]></desc>
  </metadata>
  <trk>
    <name><![CDATA[8817070-Les crets du Pilat de la croix de Trève]]></name>
    <trkseg>
      <trkpt lat="45.37716" lon="4.64052">
        <ele>806</ele>
        <time>2018-11-01T11:28:26Z</time>
      </trkpt>
      <trkpt lat="45.37718" lon="4.64046">
        <ele>806</ele>
        <time>2018-11-01T11:29:26Z</time>
      </trkpt>
      <trkpt lat="45.37724" lon="4.64053">
        <ele>806</ele>
        <time>2018-11-01T11:30:26Z</time>
      </trkpt>
      <trkpt lat="45.37735" lon="4.64058">
        <ele>807</ele>
        <time>2018-11-01T11:31:26Z</time>
      </trkpt>
      <trkpt lat="45.37795" lon="4.64054">
        <ele>806</ele>
        <time>2018-11-01T11:32:26Z</time>
      </trkpt>
      <trkpt lat="45.37856" lon="4.64056">
        <ele>802</ele>
        <time>2018-11-01T11:33:26Z</time>
      </trkpt>
      <trkpt lat="45.37953" lon="4.64068">
        <ele>799</ele>
        <time>2018-11-01T11:34:26Z</time>
      </trkpt>
      <trkpt lat="45.37986" lon="4.64078">
        <ele>797</ele>
        <time>2018-11-01T11:35:26Z</time>
      </trkpt>
      <trkpt lat="45.38013" lon="4.64098">
        <ele>795</ele>
        <time>2018-11-01T11:36:26Z</time>
      </trkpt>
      <trkpt lat="45.38029" lon="4.64115">
        <ele>794</ele>
        <time>2018-11-01T11:37:26Z</time>
      </trkpt>
      <trkpt lat="45.38058" lon="4.64153">
        <ele>792</ele>
        <time>2018-11-01T11:38:26Z</time>
      </trkpt>
      <trkpt lat="45.38099" lon="4.64197">
        <ele>793</ele>
        <time>2018-11-01T11:39:26Z</time>
      </trkpt>
      <trkpt lat="45.38124" lon="4.64234">
        <ele>793</ele>
        <time>2018-11-01T11:40:26Z</time>
      </trkpt>
      <trkpt lat="45.38157" lon="4.6429">
        <ele>792</ele>
        <time>2018-11-01T11:41:26Z</time>
      </trkpt>
      <trkpt lat="45.38191" lon="4.64334">
        <ele>791</ele>
        <time>2018-11-01T11:42:26Z</time>
      </trkpt>
      <trkpt lat="45.38207" lon="4.64349">
        <ele>790</ele>
        <time>2018-11-01T11:43:26Z</time>
      </trkpt>
      <trkpt lat="45.38232" lon="4.64363">
        <ele>790</ele>
        <time>2018-11-01T11:44:26Z</time>
      </trkpt>
      <trkpt lat="45.38291" lon="4.6438">
        <ele>796</ele>
        <time>2018-11-01T11:45:26Z</time>
      </trkpt>
      <trkpt lat="45.38315" lon="4.64384">
        <ele>800</ele>
        <time>2018-11-01T11:46:26Z</time>
      </trkpt>
      <trkpt lat="45.38324" lon="4.64387">
        <ele>801</ele>
        <time>2018-11-01T11:47:26Z</time>
      </trkpt>
      <trkpt lat="45.38341" lon="4.64398">
        <ele>802</ele>
        <time>2018-11-01T11:48:26Z</time>
      </trkpt>
      <trkpt lat="45.38394" lon="4.64433">
        <ele>807</ele>
        <time>2018-11-01T11:49:26Z</time>
      </trkpt>
      <trkpt lat="45.38435" lon="4.64463">
        <ele>813</ele>
        <time>2018-11-01T11:50:26Z</time>
      </trkpt>
      <trkpt lat="45.38463" lon="4.64488">
        <ele>818</ele>
        <time>2018-11-01T11:51:26Z</time>
      </trkpt>
      <trkpt lat="45.38483" lon="4.6451">
        <ele>821</ele>
        <time>2018-11-01T11:52:26Z</time>
      </trkpt>
      <trkpt lat="45.38507" lon="4.64542">
        <ele>825</ele>
        <time>2018-11-01T11:53:26Z</time>
      </trkpt>
      <trkpt lat="45.38524" lon="4.64558">
        <ele>828</ele>
        <time>2018-11-01T11:54:26Z</time>
      </trkpt>
      <trkpt lat="45.38537" lon="4.64573">
        <ele>830</ele>
        <time>2018-11-01T11:55:26Z</time>
      </trkpt>
      <trkpt lat="45.38559" lon="4.64595">
        <ele>833</ele>
        <time>2018-11-01T11:56:26Z</time>
      </trkpt>
      <trkpt lat="45.38571" lon="4.64603">
        <ele>835</ele>
        <time>2018-11-01T11:57:26Z</time>
      </trkpt>
      <trkpt lat="45.38627" lon="4.64631">
        <ele>840</ele>
        <time>2018-11-01T11:58:26Z</time>
      </trkpt>
      <trkpt lat="45.38636" lon="4.64632">
        <ele>841</ele>
        <time>2018-11-01T11:59:26Z</time>
      </trkpt>
      <trkpt lat="45.38647" lon="4.64631">
        <ele>843</ele>
        <time>2018-11-01T12:00:26Z</time>
      </trkpt>
      <trkpt lat="45.38666" lon="4.64622">
        <ele>847</ele>
        <time>2018-11-01T12:01:26Z</time>
      </trkpt>
      <trkpt lat="45.38676" lon="4.64615">
        <ele>848</ele>
        <time>2018-11-01T12:02:26Z</time>
      </trkpt>
      <trkpt lat="45.38687" lon="4.64602">
        <ele>850</ele>
        <time>2018-11-01T12:03:26Z</time>
      </trkpt>
      <trkpt lat="45.38689" lon="4.64593">
        <ele>851</ele>
        <time>2018-11-01T12:04:26Z</time>
      </trkpt>
      <trkpt lat="45.38688" lon="4.64583">
        <ele>853</ele>
        <time>2018-11-01T12:05:26Z</time>
      </trkpt>
      <trkpt lat="45.38685" lon="4.64577">
        <ele>855</ele>
        <time>2018-11-01T12:06:26Z</time>
      </trkpt>
      <trkpt lat="45.3865" lon="4.6453">
        <ele>863</ele>
        <time>2018-11-01T12:07:26Z</time>
      </trkpt>
      <trkpt lat="45.38632" lon="4.64503">
        <ele>864</ele>
        <time>2018-11-01T12:08:26Z</time>
      </trkpt>
      <trkpt lat="45.38621" lon="4.64478">
        <ele>866</ele>
        <time>2018-11-01T12:09:26Z</time>
      </trkpt>
      <trkpt lat="45.38615" lon="4.64461">
        <ele>866</ele>
        <time>2018-11-01T12:10:26Z</time>
      </trkpt>
      <trkpt lat="45.38606" lon="4.64414">
        <ele>870</ele>
        <time>2018-11-01T12:11:26Z</time>
      </trkpt>
      <trkpt lat="45.38609" lon="4.64355">
        <ele>877</ele>
        <time>2018-11-01T12:12:26Z</time>
      </trkpt>
      <trkpt lat="45.38606" lon="4.64289">
        <ele>884</ele>
        <time>2018-11-01T12:13:26Z</time>
      </trkpt>
      <trkpt lat="45.38598" lon="4.64261">
        <ele>887</ele>
        <time>2018-11-01T12:14:26Z</time>
      </trkpt>
      <trkpt lat="45.38593" lon="4.64226">
        <ele>893</ele>
        <time>2018-11-01T12:15:26Z</time>
      </trkpt>
      <trkpt lat="45.38609" lon="4.64223">
        <ele>895</ele>
        <time>2018-11-01T12:16:26Z</time>
      </trkpt>
      <trkpt lat="45.38626" lon="4.64223">
        <ele>896</ele>
        <time>2018-11-01T12:17:26Z</time>
      </trkpt>
      <trkpt lat="45.38634" lon="4.6422">
        <ele>897</ele>
        <time>2018-11-01T12:18:26Z</time>
      </trkpt>
      <trkpt lat="45.38641" lon="4.64213">
        <ele>899</ele>
        <time>2018-11-01T12:19:26Z</time>
      </trkpt>
      <trkpt lat="45.38633" lon="4.6422">
        <ele>897</ele>
        <time>2018-11-01T12:20:26Z</time>
      </trkpt>
      <trkpt lat="45.38623" lon="4.64217">
        <ele>897</ele>
        <time>2018-11-01T12:21:26Z</time>
      </trkpt>
      <trkpt lat="45.38608" lon="4.64199">
        <ele>899</ele>
        <time>2018-11-01T12:22:26Z</time>
      </trkpt>
      <trkpt lat="45.38581" lon="4.6418">
        <ele>903</ele>
        <time>2018-11-01T12:23:26Z</time>
      </trkpt>
      <trkpt lat="45.38561" lon="4.64159">
        <ele>905</ele>
        <time>2018-11-01T12:24:26Z</time>
      </trkpt>
      <trkpt lat="45.38555" lon="4.64148">
        <ele>907</ele>
        <time>2018-11-01T12:25:26Z</time>
      </trkpt>
      <trkpt lat="45.38534" lon="4.64097">
        <ele>916</ele>
        <time>2018-11-01T12:26:26Z</time>
      </trkpt>
      <trkpt lat="45.38509" lon="4.64054">
        <ele>922</ele>
        <time>2018-11-01T12:27:26Z</time>
      </trkpt>
      <trkpt lat="45.38509" lon="4.64054">
        <ele>922</ele>
        <time>2018-11-01T12:28:26Z</time>
      </trkpt>
      <trkpt lat="45.38505" lon="4.64047">
        <ele>922</ele>
        <time>2018-11-01T12:29:26Z</time>
      </trkpt>
      <trkpt lat="45.38479" lon="4.63982">
        <ele>932</ele>
        <time>2018-11-01T12:30:26Z</time>
      </trkpt>
      <trkpt lat="45.38422" lon="4.63888">
        <ele>945</ele>
        <time>2018-11-01T12:31:26Z</time>
      </trkpt>
      <trkpt lat="45.38413" lon="4.63862">
        <ele>950</ele>
        <time>2018-11-01T12:32:26Z</time>
      </trkpt>
      <trkpt lat="45.38404" lon="4.63818">
        <ele>956</ele>
        <time>2018-11-01T12:33:26Z</time>
      </trkpt>
      <trkpt lat="45.384" lon="4.63773">
        <ele>961</ele>
        <time>2018-11-01T12:34:26Z</time>
      </trkpt>
      <trkpt lat="45.38402" lon="4.63754">
        <ele>963</ele>
        <time>2018-11-01T12:35:26Z</time>
      </trkpt>
      <trkpt lat="45.38403" lon="4.63667">
        <ele>972</ele>
        <time>2018-11-01T12:36:26Z</time>
      </trkpt>
      <trkpt lat="45.38407" lon="4.63638">
        <ele>976</ele>
        <time>2018-11-01T12:37:26Z</time>
      </trkpt>
      <trkpt lat="45.384" lon="4.63569">
        <ele>981</ele>
        <time>2018-11-01T12:38:26Z</time>
      </trkpt>
      <trkpt lat="45.38379" lon="4.63467">
        <ele>988</ele>
        <time>2018-11-01T12:39:26Z</time>
      </trkpt>
      <trkpt lat="45.38369" lon="4.63397">
        <ele>995</ele>
        <time>2018-11-01T12:40:26Z</time>
      </trkpt>
      <trkpt lat="45.38366" lon="4.63366">
        <ele>1000</ele>
        <time>2018-11-01T12:41:26Z</time>
      </trkpt>
      <trkpt lat="45.38366" lon="4.63309">
        <ele>1006</ele>
        <time>2018-11-01T12:42:26Z</time>
      </trkpt>
      <trkpt lat="45.38373" lon="4.63284">
        <ele>1009</ele>
        <time>2018-11-01T12:43:26Z</time>
      </trkpt>
      <trkpt lat="45.3839" lon="4.63275">
        <ele>1013</ele>
        <time>2018-11-01T12:44:26Z</time>
      </trkpt>
      <trkpt lat="45.38396" lon="4.63257">
        <ele>1015</ele>
        <time>2018-11-01T12:45:26Z</time>
      </trkpt>
      <trkpt lat="45.38412" lon="4.63234">
        <ele>1019</ele>
        <time>2018-11-01T12:46:26Z</time>
      </trkpt>
      <trkpt lat="45.3845" lon="4.63202">
        <ele>1029</ele>
        <time>2018-11-01T12:47:26Z</time>
      </trkpt>
      <trkpt lat="45.38459" lon="4.63191">
        <ele>1032</ele>
        <time>2018-11-01T12:48:26Z</time>
      </trkpt>
      <trkpt lat="45.38459" lon="4.63191">
        <ele>1032</ele>
        <time>2018-11-01T12:49:26Z</time>
      </trkpt>
      <trkpt lat="45.38474" lon="4.63175">
        <ele>1037</ele>
        <time>2018-11-01T12:50:26Z</time>
      </trkpt>
      <trkpt lat="45.38484" lon="4.6317">
        <ele>1040</ele>
        <time>2018-11-01T12:51:26Z</time>
      </trkpt>
      <trkpt lat="45.3849" lon="4.63173">
        <ele>1042</ele>
        <time>2018-11-01T12:52:26Z</time>
      </trkpt>
      <trkpt lat="45.385" lon="4.63183">
        <ele>1044</ele>
        <time>2018-11-01T12:53:26Z</time>
      </trkpt>
      <trkpt lat="45.38506" lon="4.63186">
        <ele>1046</ele>
        <time>2018-11-01T12:54:26Z</time>
      </trkpt>
      <trkpt lat="45.38523" lon="4.63186">
        <ele>1051</ele>
        <time>2018-11-01T12:55:26Z</time>
      </trkpt>
      <trkpt lat="45.38524" lon="4.63175">
        <ele>1052</ele>
        <time>2018-11-01T12:56:26Z</time>
      </trkpt>
      <trkpt lat="45.38516" lon="4.63035">
        <ele>1055</ele>
        <time>2018-11-01T12:57:26Z</time>
      </trkpt>
      <trkpt lat="45.3851" lon="4.62968">
        <ele>1056</ele>
        <time>2018-11-01T12:58:26Z</time>
      </trkpt>
      <trkpt lat="45.3851" lon="4.62827">
        <ele>1063</ele>
        <time>2018-11-01T12:59:26Z</time>
      </trkpt>
      <trkpt lat="45.38519" lon="4.62779">
        <ele>1065</ele>
        <time>2018-11-01T13:00:26Z</time>
      </trkpt>
      <trkpt lat="45.38545" lon="4.62695">
        <ele>1067</ele>
        <time>2018-11-01T13:01:26Z</time>
      </trkpt>
      <trkpt lat="45.38595" lon="4.62619">
        <ele>1077</ele>
        <time>2018-11-01T13:02:26Z</time>
      </trkpt>
      <trkpt lat="45.38605" lon="4.62599">
        <ele>1079</ele>
        <time>2018-11-01T13:03:26Z</time>
      </trkpt>
      <trkpt lat="45.38605" lon="4.62599">
        <ele>1079</ele>
        <time>2018-11-01T13:04:26Z</time>
      </trkpt>
      <trkpt lat="45.3865" lon="4.62507">
        <ele>1089</ele>
        <time>2018-11-01T13:05:26Z</time>
      </trkpt>
      <trkpt lat="45.3867" lon="4.62452">
        <ele>1095</ele>
        <time>2018-11-01T13:06:26Z</time>
      </trkpt>
      <trkpt lat="45.38675" lon="4.62415">
        <ele>1096</ele>
        <time>2018-11-01T13:07:26Z</time>
      </trkpt>
      <trkpt lat="45.38682" lon="4.62387">
        <ele>1099</ele>
        <time>2018-11-01T13:08:26Z</time>
      </trkpt>
      <trkpt lat="45.38688" lon="4.62332">
        <ele>1103</ele>
        <time>2018-11-01T13:09:26Z</time>
      </trkpt>
      <trkpt lat="45.38684" lon="4.62284">
        <ele>1107</ele>
        <time>2018-11-01T13:10:26Z</time>
      </trkpt>
      <trkpt lat="45.38681" lon="4.62262">
        <ele>1109</ele>
        <time>2018-11-01T13:11:26Z</time>
      </trkpt>
      <trkpt lat="45.38671" lon="4.62218">
        <ele>1115</ele>
        <time>2018-11-01T13:12:26Z</time>
      </trkpt>
      <trkpt lat="45.38665" lon="4.62201">
        <ele>1117</ele>
        <time>2018-11-01T13:13:26Z</time>
      </trkpt>
      <trkpt lat="45.38607" lon="4.62089">
        <ele>1131</ele>
        <time>2018-11-01T13:14:26Z</time>
      </trkpt>
      <trkpt lat="45.38553" lon="4.62004">
        <ele>1143</ele>
        <time>2018-11-01T13:15:26Z</time>
      </trkpt>
      <trkpt lat="45.38495" lon="4.61889">
        <ele>1158</ele>
        <time>2018-11-01T13:16:26Z</time>
      </trkpt>
      <trkpt lat="45.38474" lon="4.61819">
        <ele>1165</ele>
        <time>2018-11-01T13:17:26Z</time>
      </trkpt>
      <trkpt lat="45.38455" lon="4.61729">
        <ele>1170</ele>
        <time>2018-11-01T13:18:26Z</time>
      </trkpt>
      <trkpt lat="45.38437" lon="4.6162">
        <ele>1181</ele>
        <time>2018-11-01T13:19:26Z</time>
      </trkpt>
      <trkpt lat="45.38427" lon="4.61591">
        <ele>1185</ele>
        <time>2018-11-01T13:20:26Z</time>
      </trkpt>
      <trkpt lat="45.3841" lon="4.61559">
        <ele>1188</ele>
        <time>2018-11-01T13:21:26Z</time>
      </trkpt>
      <trkpt lat="45.38412" lon="4.61552">
        <ele>1189</ele>
        <time>2018-11-01T13:22:26Z</time>
      </trkpt>
      <trkpt lat="45.38416" lon="4.6155">
        <ele>1190</ele>
        <time>2018-11-01T13:23:26Z</time>
      </trkpt>
      <trkpt lat="45.38433" lon="4.61553">
        <ele>1192</ele>
        <time>2018-11-01T13:24:26Z</time>
      </trkpt>
      <trkpt lat="45.38453" lon="4.61553">
        <ele>1195</ele>
        <time>2018-11-01T13:25:26Z</time>
      </trkpt>
      <trkpt lat="45.38458" lon="4.61551">
        <ele>1196</ele>
        <time>2018-11-01T13:26:26Z</time>
      </trkpt>
      <trkpt lat="45.38471" lon="4.61539">
        <ele>1199</ele>
        <time>2018-11-01T13:27:26Z</time>
      </trkpt>
      <trkpt lat="45.38481" lon="4.61508">
        <ele>1203</ele>
        <time>2018-11-01T13:28:26Z</time>
      </trkpt>
      <trkpt lat="45.38487" lon="4.61517">
        <ele>1203</ele>
        <time>2018-11-01T13:29:26Z</time>
      </trkpt>
      <trkpt lat="45.38495" lon="4.61521">
        <ele>1203</ele>
        <time>2018-11-01T13:30:26Z</time>
      </trkpt>
      <trkpt lat="45.38516" lon="4.6152">
        <ele>1205</ele>
        <time>2018-11-01T13:31:26Z</time>
      </trkpt>
      <trkpt lat="45.38518" lon="4.61529">
        <ele>1205</ele>
        <time>2018-11-01T13:32:26Z</time>
      </trkpt>
      <trkpt lat="45.38522" lon="4.61536">
        <ele>1205</ele>
        <time>2018-11-01T13:33:26Z</time>
      </trkpt>
      <trkpt lat="45.38531" lon="4.61541">
        <ele>1206</ele>
        <time>2018-11-01T13:34:26Z</time>
      </trkpt>
      <trkpt lat="45.38544" lon="4.61539">
        <ele>1208</ele>
        <time>2018-11-01T13:35:26Z</time>
      </trkpt>
      <trkpt lat="45.38599" lon="4.61517">
        <ele>1211</ele>
        <time>2018-11-01T13:36:26Z</time>
      </trkpt>
      <trkpt lat="45.38635" lon="4.61507">
        <ele>1214</ele>
        <time>2018-11-01T13:37:26Z</time>
      </trkpt>
      <trkpt lat="45.3867" lon="4.61506">
        <ele>1217</ele>
        <time>2018-11-01T13:38:26Z</time>
      </trkpt>
      <trkpt lat="45.38714" lon="4.61489">
        <ele>1219</ele>
        <time>2018-11-01T13:39:26Z</time>
      </trkpt>
      <trkpt lat="45.38766" lon="4.61459">
        <ele>1222</ele>
        <time>2018-11-01T13:40:26Z</time>
      </trkpt>
      <trkpt lat="45.38805" lon="4.61422">
        <ele>1226</ele>
        <time>2018-11-01T13:41:26Z</time>
      </trkpt>
      <trkpt lat="45.38812" lon="4.61418">
        <ele>1227</ele>
        <time>2018-11-01T13:42:26Z</time>
      </trkpt>
      <trkpt lat="45.3882" lon="4.61418">
        <ele>1229</ele>
        <time>2018-11-01T13:43:26Z</time>
      </trkpt>
      <trkpt lat="45.38828" lon="4.61422">
        <ele>1230</ele>
        <time>2018-11-01T13:44:26Z</time>
      </trkpt>
      <trkpt lat="45.38833" lon="4.61427">
        <ele>1231</ele>
        <time>2018-11-01T13:45:26Z</time>
      </trkpt>
      <trkpt lat="45.38839" lon="4.61442">
        <ele>1233</ele>
        <time>2018-11-01T13:46:26Z</time>
      </trkpt>
      <trkpt lat="45.38839" lon="4.61531">
        <ele>1235</ele>
        <time>2018-11-01T13:47:26Z</time>
      </trkpt>
      <trkpt lat="45.38839" lon="4.6154">
        <ele>1235</ele>
        <time>2018-11-01T13:48:26Z</time>
      </trkpt>
      <trkpt lat="45.38844" lon="4.61558">
        <ele>1236</ele>
        <time>2018-11-01T13:49:26Z</time>
      </trkpt>
      <trkpt lat="45.38848" lon="4.61566">
        <ele>1236</ele>
        <time>2018-11-01T13:50:26Z</time>
      </trkpt>
      <trkpt lat="45.38853" lon="4.61571">
        <ele>1236</ele>
        <time>2018-11-01T13:51:26Z</time>
      </trkpt>
      <trkpt lat="45.38857" lon="4.61574">
        <ele>1236</ele>
        <time>2018-11-01T13:52:26Z</time>
      </trkpt>
      <trkpt lat="45.38865" lon="4.61572">
        <ele>1236</ele>
        <time>2018-11-01T13:53:26Z</time>
      </trkpt>
      <trkpt lat="45.38876" lon="4.61566">
        <ele>1236</ele>
        <time>2018-11-01T13:54:26Z</time>
      </trkpt>
      <trkpt lat="45.38882" lon="4.61556">
        <ele>1237</ele>
        <time>2018-11-01T13:55:26Z</time>
      </trkpt>
      <trkpt lat="45.38892" lon="4.61553">
        <ele>1237</ele>
        <time>2018-11-01T13:56:26Z</time>
      </trkpt>
      <trkpt lat="45.38915" lon="4.61535">
        <ele>1240</ele>
        <time>2018-11-01T13:57:26Z</time>
      </trkpt>
      <trkpt lat="45.38927" lon="4.61522">
        <ele>1242</ele>
        <time>2018-11-01T13:58:26Z</time>
      </trkpt>
      <trkpt lat="45.3894" lon="4.61489">
        <ele>1247</ele>
        <time>2018-11-01T13:59:26Z</time>
      </trkpt>
      <trkpt lat="45.38945" lon="4.61458">
        <ele>1251</ele>
        <time>2018-11-01T14:00:26Z</time>
      </trkpt>
      <trkpt lat="45.3896" lon="4.61419">
        <ele>1258</ele>
        <time>2018-11-01T14:01:26Z</time>
      </trkpt>
      <trkpt lat="45.38975" lon="4.61356">
        <ele>1264</ele>
        <time>2018-11-01T14:02:26Z</time>
      </trkpt>
      <trkpt lat="45.38975" lon="4.61356">
        <ele>1264</ele>
        <time>2018-11-01T14:03:26Z</time>
      </trkpt>
      <trkpt lat="45.38989" lon="4.61295">
        <ele>1269</ele>
        <time>2018-11-01T14:04:26Z</time>
      </trkpt>
      <trkpt lat="45.38992" lon="4.61256">
        <ele>1271</ele>
        <time>2018-11-01T14:05:26Z</time>
      </trkpt>
      <trkpt lat="45.38997" lon="4.61216">
        <ele>1273</ele>
        <time>2018-11-01T14:06:26Z</time>
      </trkpt>
      <trkpt lat="45.38996" lon="4.61207">
        <ele>1273</ele>
        <time>2018-11-01T14:07:26Z</time>
      </trkpt>
      <trkpt lat="45.39009" lon="4.61181">
        <ele>1277</ele>
        <time>2018-11-01T14:08:26Z</time>
      </trkpt>
      <trkpt lat="45.39013" lon="4.61167">
        <ele>1279</ele>
        <time>2018-11-01T14:09:26Z</time>
      </trkpt>
      <trkpt lat="45.39036" lon="4.61129">
        <ele>1289</ele>
        <time>2018-11-01T14:10:26Z</time>
      </trkpt>
      <trkpt lat="45.39057" lon="4.6108">
        <ele>1298</ele>
        <time>2018-11-01T14:11:26Z</time>
      </trkpt>
      <trkpt lat="45.39065" lon="4.61057">
        <ele>1301</ele>
        <time>2018-11-01T14:12:26Z</time>
      </trkpt>
      <trkpt lat="45.39079" lon="4.60995">
        <ele>1307</ele>
        <time>2018-11-01T14:13:26Z</time>
      </trkpt>
      <trkpt lat="45.39084" lon="4.60962">
        <ele>1310</ele>
        <time>2018-11-01T14:14:26Z</time>
      </trkpt>
      <trkpt lat="45.39084" lon="4.60962">
        <ele>1310</ele>
        <time>2018-11-01T14:15:26Z</time>
      </trkpt>
      <trkpt lat="45.39089" lon="4.60926">
        <ele>1314</ele>
        <time>2018-11-01T14:16:26Z</time>
      </trkpt>
      <trkpt lat="45.39094" lon="4.60859">
        <ele>1317</ele>
        <time>2018-11-01T14:17:26Z</time>
      </trkpt>
      <trkpt lat="45.39101" lon="4.60841">
        <ele>1318</ele>
        <time>2018-11-01T14:18:26Z</time>
      </trkpt>
      <trkpt lat="45.39105" lon="4.60833">
        <ele>1318</ele>
        <time>2018-11-01T14:19:26Z</time>
      </trkpt>
      <trkpt lat="45.39111" lon="4.60826">
        <ele>1319</ele>
        <time>2018-11-01T14:20:26Z</time>
      </trkpt>
      <trkpt lat="45.39093" lon="4.60793">
        <ele>1319</ele>
        <time>2018-11-01T14:21:26Z</time>
      </trkpt>
      <trkpt lat="45.39102" lon="4.60781">
        <ele>1320</ele>
        <time>2018-11-01T14:22:26Z</time>
      </trkpt>
      <trkpt lat="45.39072" lon="4.6074">
        <ele>1323</ele>
        <time>2018-11-01T14:23:26Z</time>
      </trkpt>
      <trkpt lat="45.39064" lon="4.60727">
        <ele>1324</ele>
        <time>2018-11-01T14:24:26Z</time>
      </trkpt>
      <trkpt lat="45.3905" lon="4.60695">
        <ele>1328</ele>
        <time>2018-11-01T14:25:26Z</time>
      </trkpt>
      <trkpt lat="45.39039" lon="4.60666">
        <ele>1333</ele>
        <time>2018-11-01T14:26:26Z</time>
      </trkpt>
      <trkpt lat="45.39038" lon="4.60659">
        <ele>1334</ele>
        <time>2018-11-01T14:27:26Z</time>
      </trkpt>
      <trkpt lat="45.39038" lon="4.60659">
        <ele>1334</ele>
        <time>2018-11-01T14:28:26Z</time>
      </trkpt>
      <trkpt lat="45.39028" lon="4.60591">
        <ele>1343</ele>
        <time>2018-11-01T14:29:26Z</time>
      </trkpt>
      <trkpt lat="45.39027" lon="4.60509">
        <ele>1354</ele>
        <time>2018-11-01T14:30:26Z</time>
      </trkpt>
      <trkpt lat="45.39029" lon="4.60487">
        <ele>1356</ele>
        <time>2018-11-01T14:31:26Z</time>
      </trkpt>
      <trkpt lat="45.39037" lon="4.60434">
        <ele>1358</ele>
        <time>2018-11-01T14:32:26Z</time>
      </trkpt>
      <trkpt lat="45.39052" lon="4.6038">
        <ele>1358</ele>
        <time>2018-11-01T14:33:26Z</time>
      </trkpt>
      <trkpt lat="45.3906" lon="4.60344">
        <ele>1358</ele>
        <time>2018-11-01T14:34:26Z</time>
      </trkpt>
      <trkpt lat="45.39069" lon="4.6029">
        <ele>1358</ele>
        <time>2018-11-01T14:35:26Z</time>
      </trkpt>
      <trkpt lat="45.39072" lon="4.60265">
        <ele>1359</ele>
        <time>2018-11-01T14:36:26Z</time>
      </trkpt>
      <trkpt lat="45.39072" lon="4.6024">
        <ele>1359</ele>
        <time>2018-11-01T14:37:26Z</time>
      </trkpt>
      <trkpt lat="45.3907" lon="4.6021">
        <ele>1357</ele>
        <time>2018-11-01T14:38:26Z</time>
      </trkpt>
      <trkpt lat="45.39063" lon="4.60176">
        <ele>1356</ele>
        <time>2018-11-01T14:39:26Z</time>
      </trkpt>
      <trkpt lat="45.39052" lon="4.60134">
        <ele>1353</ele>
        <time>2018-11-01T14:40:26Z</time>
      </trkpt>
      <trkpt lat="45.39042" lon="4.60108">
        <ele>1352</ele>
        <time>2018-11-01T14:41:26Z</time>
      </trkpt>
      <trkpt lat="45.39031" lon="4.60087">
        <ele>1351</ele>
        <time>2018-11-01T14:42:26Z</time>
      </trkpt>
      <trkpt lat="45.39018" lon="4.60068">
        <ele>1350</ele>
        <time>2018-11-01T14:43:26Z</time>
      </trkpt>
      <trkpt lat="45.39001" lon="4.60048">
        <ele>1349</ele>
        <time>2018-11-01T14:44:26Z</time>
      </trkpt>
      <trkpt lat="45.38984" lon="4.60033">
        <ele>1348</ele>
        <time>2018-11-01T14:45:26Z</time>
      </trkpt>
      <trkpt lat="45.38904" lon="4.59942">
        <ele>1343</ele>
        <time>2018-11-01T14:46:26Z</time>
      </trkpt>
      <trkpt lat="45.38881" lon="4.59912">
        <ele>1341</ele>
        <time>2018-11-01T14:47:26Z</time>
      </trkpt>
      <trkpt lat="45.38856" lon="4.59875">
        <ele>1342</ele>
        <time>2018-11-01T14:48:26Z</time>
      </trkpt>
      <trkpt lat="45.38853" lon="4.59866">
        <ele>1343</ele>
        <time>2018-11-01T14:49:26Z</time>
      </trkpt>
      <trkpt lat="45.38847" lon="4.59838">
        <ele>1345</ele>
        <time>2018-11-01T14:50:26Z</time>
      </trkpt>
      <trkpt lat="45.38846" lon="4.59807">
        <ele>1347</ele>
        <time>2018-11-01T14:51:26Z</time>
      </trkpt>
      <trkpt lat="45.38852" lon="4.59708">
        <ele>1351</ele>
        <time>2018-11-01T14:52:26Z</time>
      </trkpt>
      <trkpt lat="45.38839" lon="4.59592">
        <ele>1358</ele>
        <time>2018-11-01T14:53:26Z</time>
      </trkpt>
      <trkpt lat="45.38829" lon="4.59535">
        <ele>1362</ele>
        <time>2018-11-01T14:54:26Z</time>
      </trkpt>
      <trkpt lat="45.38827" lon="4.59498">
        <ele>1363</ele>
        <time>2018-11-01T14:55:26Z</time>
      </trkpt>
      <trkpt lat="45.38824" lon="4.59477">
        <ele>1362</ele>
        <time>2018-11-01T14:56:26Z</time>
      </trkpt>
      <trkpt lat="45.3882" lon="4.59462">
        <ele>1362</ele>
        <time>2018-11-01T14:57:26Z</time>
      </trkpt>
      <trkpt lat="45.38813" lon="4.59446">
        <ele>1362</ele>
        <time>2018-11-01T14:58:26Z</time>
      </trkpt>
      <trkpt lat="45.38807" lon="4.59438">
        <ele>1363</ele>
        <time>2018-11-01T14:59:26Z</time>
      </trkpt>
      <trkpt lat="45.38787" lon="4.59413">
        <ele>1366</ele>
        <time>2018-11-01T15:00:26Z</time>
      </trkpt>
      <trkpt lat="45.38768" lon="4.59398">
        <ele>1368</ele>
        <time>2018-11-01T15:01:26Z</time>
      </trkpt>
      <trkpt lat="45.38744" lon="4.59385">
        <ele>1371</ele>
        <time>2018-11-01T15:02:26Z</time>
      </trkpt>
      <trkpt lat="45.3869" lon="4.59376">
        <ele>1374</ele>
        <time>2018-11-01T15:03:26Z</time>
      </trkpt>
      <trkpt lat="45.38671" lon="4.59364">
        <ele>1375</ele>
        <time>2018-11-01T15:04:26Z</time>
      </trkpt>
      <trkpt lat="45.38664" lon="4.59356">
        <ele>1376</ele>
        <time>2018-11-01T15:05:26Z</time>
      </trkpt>
      <trkpt lat="45.38659" lon="4.59343">
        <ele>1376</ele>
        <time>2018-11-01T15:06:26Z</time>
      </trkpt>
      <trkpt lat="45.38659" lon="4.59335">
        <ele>1376</ele>
        <time>2018-11-01T15:07:26Z</time>
      </trkpt>
      <trkpt lat="45.3866" lon="4.59322">
        <ele>1376</ele>
        <time>2018-11-01T15:08:26Z</time>
      </trkpt>
      <trkpt lat="45.38667" lon="4.59296">
        <ele>1377</ele>
        <time>2018-11-01T15:09:26Z</time>
      </trkpt>
      <trkpt lat="45.38668" lon="4.59279">
        <ele>1378</ele>
        <time>2018-11-01T15:10:26Z</time>
      </trkpt>
      <trkpt lat="45.38666" lon="4.59261">
        <ele>1379</ele>
        <time>2018-11-01T15:11:26Z</time>
      </trkpt>
      <trkpt lat="45.38648" lon="4.59221">
        <ele>1379</ele>
        <time>2018-11-01T15:12:26Z</time>
      </trkpt>
      <trkpt lat="45.3861" lon="4.59157">
        <ele>1381</ele>
        <time>2018-11-01T15:13:26Z</time>
      </trkpt>
      <trkpt lat="45.38593" lon="4.59113">
        <ele>1382</ele>
        <time>2018-11-01T15:14:26Z</time>
      </trkpt>
      <trkpt lat="45.38579" lon="4.59061">
        <ele>1382</ele>
        <time>2018-11-01T15:15:26Z</time>
      </trkpt>
      <trkpt lat="45.38566" lon="4.59001">
        <ele>1380</ele>
        <time>2018-11-01T15:16:26Z</time>
      </trkpt>
      <trkpt lat="45.38557" lon="4.58966">
        <ele>1378</ele>
        <time>2018-11-01T15:17:26Z</time>
      </trkpt>
      <trkpt lat="45.3854" lon="4.5892">
        <ele>1376</ele>
        <time>2018-11-01T15:18:26Z</time>
      </trkpt>
      <trkpt lat="45.38534" lon="4.58896">
        <ele>1375</ele>
        <time>2018-11-01T15:19:26Z</time>
      </trkpt>
      <trkpt lat="45.38512" lon="4.58828">
        <ele>1371</ele>
        <time>2018-11-01T15:20:26Z</time>
      </trkpt>
      <trkpt lat="45.38497" lon="4.58772">
        <ele>1367</ele>
        <time>2018-11-01T15:21:26Z</time>
      </trkpt>
      <trkpt lat="45.3848" lon="4.58738">
        <ele>1365</ele>
        <time>2018-11-01T15:22:26Z</time>
      </trkpt>
      <trkpt lat="45.38471" lon="4.58728">
        <ele>1364</ele>
        <time>2018-11-01T15:23:26Z</time>
      </trkpt>
      <trkpt lat="45.38456" lon="4.5872">
        <ele>1364</ele>
        <time>2018-11-01T15:24:26Z</time>
      </trkpt>
      <trkpt lat="45.38456" lon="4.5872">
        <ele>1364</ele>
        <time>2018-11-01T15:25:26Z</time>
      </trkpt>
      <trkpt lat="45.38448" lon="4.58716">
        <ele>1364</ele>
        <time>2018-11-01T15:26:26Z</time>
      </trkpt>
      <trkpt lat="45.38435" lon="4.58699">
        <ele>1364</ele>
        <time>2018-11-01T15:27:26Z</time>
      </trkpt>
      <trkpt lat="45.38435" lon="4.58686">
        <ele>1364</ele>
        <time>2018-11-01T15:28:26Z</time>
      </trkpt>
      <trkpt lat="45.3843" lon="4.5868">
        <ele>1364</ele>
        <time>2018-11-01T15:29:26Z</time>
      </trkpt>
      <trkpt lat="45.38423" lon="4.58663">
        <ele>1365</ele>
        <time>2018-11-01T15:30:26Z</time>
      </trkpt>
      <trkpt lat="45.38414" lon="4.58652">
        <ele>1366</ele>
        <time>2018-11-01T15:31:26Z</time>
      </trkpt>
      <trkpt lat="45.3839" lon="4.58633">
        <ele>1366</ele>
        <time>2018-11-01T15:32:26Z</time>
      </trkpt>
      <trkpt lat="45.38368" lon="4.58621">
        <ele>1368</ele>
        <time>2018-11-01T15:33:26Z</time>
      </trkpt>
      <trkpt lat="45.38363" lon="4.58616">
        <ele>1369</ele>
        <time>2018-11-01T15:34:26Z</time>
      </trkpt>
      <trkpt lat="45.38353" lon="4.58602">
        <ele>1371</ele>
        <time>2018-11-01T15:35:26Z</time>
      </trkpt>
      <trkpt lat="45.38344" lon="4.58595">
        <ele>1372</ele>
        <time>2018-11-01T15:36:26Z</time>
      </trkpt>
      <trkpt lat="45.38336" lon="4.58595">
        <ele>1373</ele>
        <time>2018-11-01T15:37:26Z</time>
      </trkpt>
      <trkpt lat="45.38326" lon="4.58599">
        <ele>1372</ele>
        <time>2018-11-01T15:38:26Z</time>
      </trkpt>
      <trkpt lat="45.38313" lon="4.58602">
        <ele>1371</ele>
        <time>2018-11-01T15:39:26Z</time>
      </trkpt>
      <trkpt lat="45.38285" lon="4.58593">
        <ele>1372</ele>
        <time>2018-11-01T15:40:26Z</time>
      </trkpt>
      <trkpt lat="45.38274" lon="4.58581">
        <ele>1375</ele>
        <time>2018-11-01T15:41:26Z</time>
      </trkpt>
      <trkpt lat="45.3827" lon="4.58564">
        <ele>1376</ele>
        <time>2018-11-01T15:42:26Z</time>
      </trkpt>
      <trkpt lat="45.38267" lon="4.58541">
        <ele>1378</ele>
        <time>2018-11-01T15:43:26Z</time>
      </trkpt>
      <trkpt lat="45.38259" lon="4.58525">
        <ele>1380</ele>
        <time>2018-11-01T15:44:26Z</time>
      </trkpt>
      <trkpt lat="45.3825" lon="4.58516">
        <ele>1381</ele>
        <time>2018-11-01T15:45:26Z</time>
      </trkpt>
      <trkpt lat="45.38215" lon="4.58509">
        <ele>1382</ele>
        <time>2018-11-01T15:46:26Z</time>
      </trkpt>
      <trkpt lat="45.38195" lon="4.58496">
        <ele>1383</ele>
        <time>2018-11-01T15:47:26Z</time>
      </trkpt>
      <trkpt lat="45.38188" lon="4.58486">
        <ele>1384</ele>
        <time>2018-11-01T15:48:26Z</time>
      </trkpt>
      <trkpt lat="45.38176" lon="4.58458">
        <ele>1387</ele>
        <time>2018-11-01T15:49:26Z</time>
      </trkpt>
      <trkpt lat="45.38189" lon="4.58426">
        <ele>1390</ele>
        <time>2018-11-01T15:50:26Z</time>
      </trkpt>
      <trkpt lat="45.382" lon="4.5841">
        <ele>1391</ele>
        <time>2018-11-01T15:51:26Z</time>
      </trkpt>
      <trkpt lat="45.38204" lon="4.58401">
        <ele>1392</ele>
        <time>2018-11-01T15:52:26Z</time>
      </trkpt>
      <trkpt lat="45.3821" lon="4.58371">
        <ele>1395</ele>
        <time>2018-11-01T15:53:26Z</time>
      </trkpt>
      <trkpt lat="45.38223" lon="4.58341">
        <ele>1398</ele>
        <time>2018-11-01T15:54:26Z</time>
      </trkpt>
      <trkpt lat="45.38244" lon="4.58305">
        <ele>1401</ele>
        <time>2018-11-01T15:55:26Z</time>
      </trkpt>
      <trkpt lat="45.38259" lon="4.58265">
        <ele>1405</ele>
        <time>2018-11-01T15:56:26Z</time>
      </trkpt>
      <trkpt lat="45.38264" lon="4.58247">
        <ele>1407</ele>
        <time>2018-11-01T15:57:26Z</time>
      </trkpt>
      <trkpt lat="45.38266" lon="4.58221">
        <ele>1409</ele>
        <time>2018-11-01T15:58:26Z</time>
      </trkpt>
      <trkpt lat="45.3827" lon="4.58199">
        <ele>1411</ele>
        <time>2018-11-01T15:59:26Z</time>
      </trkpt>
      <trkpt lat="45.38269" lon="4.58166">
        <ele>1414</ele>
        <time>2018-11-01T16:00:26Z</time>
      </trkpt>
      <trkpt lat="45.38265" lon="4.58151">
        <ele>1416</ele>
        <time>2018-11-01T16:01:26Z</time>
      </trkpt>
      <trkpt lat="45.38265" lon="4.58138">
        <ele>1417</ele>
        <time>2018-11-01T16:02:26Z</time>
      </trkpt>
      <trkpt lat="45.3827" lon="4.58125">
        <ele>1417</ele>
        <time>2018-11-01T16:03:26Z</time>
      </trkpt>
      <trkpt lat="45.38273" lon="4.58113">
        <ele>1418</ele>
        <time>2018-11-01T16:04:26Z</time>
      </trkpt>
      <trkpt lat="45.38271" lon="4.58096">
        <ele>1419</ele>
        <time>2018-11-01T16:05:26Z</time>
      </trkpt>
      <trkpt lat="45.38282" lon="4.58019">
        <ele>1420</ele>
        <time>2018-11-01T16:06:26Z</time>
      </trkpt>
      <trkpt lat="45.38302" lon="4.57997">
        <ele>1418</ele>
        <time>2018-11-01T16:07:26Z</time>
      </trkpt>
      <trkpt lat="45.38319" lon="4.57974">
        <ele>1415</ele>
        <time>2018-11-01T16:08:26Z</time>
      </trkpt>
      <trkpt lat="45.3832" lon="4.57955">
        <ele>1414</ele>
        <time>2018-11-01T16:09:26Z</time>
      </trkpt>
      <trkpt lat="45.38317" lon="4.57937">
        <ele>1413</ele>
        <time>2018-11-01T16:10:26Z</time>
      </trkpt>
      <trkpt lat="45.38306" lon="4.57899">
        <ele>1411</ele>
        <time>2018-11-01T16:11:26Z</time>
      </trkpt>
      <trkpt lat="45.38294" lon="4.57896">
        <ele>1412</ele>
        <time>2018-11-01T16:12:26Z</time>
      </trkpt>
      <trkpt lat="45.38292" lon="4.57884">
        <ele>1411</ele>
        <time>2018-11-01T16:13:26Z</time>
      </trkpt>
      <trkpt lat="45.38295" lon="4.57819">
        <ele>1405</ele>
        <time>2018-11-01T16:14:26Z</time>
      </trkpt>
      <trkpt lat="45.38294" lon="4.57684">
        <ele>1398</ele>
        <time>2018-11-01T16:15:26Z</time>
      </trkpt>
      <trkpt lat="45.38281" lon="4.5759">
        <ele>1399</ele>
        <time>2018-11-01T16:16:26Z</time>
      </trkpt>
      <trkpt lat="45.38275" lon="4.57572">
        <ele>1399</ele>
        <time>2018-11-01T16:17:26Z</time>
      </trkpt>
      <trkpt lat="45.38266" lon="4.57527">
        <ele>1401</ele>
        <time>2018-11-01T16:18:26Z</time>
      </trkpt>
      <trkpt lat="45.38262" lon="4.57488">
        <ele>1404</ele>
        <time>2018-11-01T16:19:26Z</time>
      </trkpt>
      <trkpt lat="45.3826" lon="4.5741">
        <ele>1409</ele>
        <time>2018-11-01T16:20:26Z</time>
      </trkpt>
      <trkpt lat="45.38265" lon="4.57385">
        <ele>1412</ele>
        <time>2018-11-01T16:21:26Z</time>
      </trkpt>
      <trkpt lat="45.38263" lon="4.57381">
        <ele>1413</ele>
        <time>2018-11-01T16:22:26Z</time>
      </trkpt>
      <trkpt lat="45.3826" lon="4.57369">
        <ele>1415</ele>
        <time>2018-11-01T16:23:26Z</time>
      </trkpt>
      <trkpt lat="45.38248" lon="4.57356">
        <ele>1417</ele>
        <time>2018-11-01T16:24:26Z</time>
      </trkpt>
      <trkpt lat="45.38252" lon="4.57308">
        <ele>1421</ele>
        <time>2018-11-01T16:25:26Z</time>
      </trkpt>
      <trkpt lat="45.3825" lon="4.57286">
        <ele>1422</ele>
        <time>2018-11-01T16:26:26Z</time>
      </trkpt>
      <trkpt lat="45.3825" lon="4.57286">
        <ele>1422</ele>
        <time>2018-11-01T16:27:26Z</time>
      </trkpt>
      <trkpt lat="45.3825" lon="4.57265">
        <ele>1422</ele>
        <time>2018-11-01T16:28:26Z</time>
      </trkpt>
      <trkpt lat="45.38242" lon="4.5724">
        <ele>1421</ele>
        <time>2018-11-01T16:29:26Z</time>
      </trkpt>
      <trkpt lat="45.38234" lon="4.57224">
        <ele>1419</ele>
        <time>2018-11-01T16:30:26Z</time>
      </trkpt>
      <trkpt lat="45.38231" lon="4.57205">
        <ele>1418</ele>
        <time>2018-11-01T16:31:26Z</time>
      </trkpt>
      <trkpt lat="45.38231" lon="4.57175">
        <ele>1417</ele>
        <time>2018-11-01T16:32:26Z</time>
      </trkpt>
      <trkpt lat="45.38228" lon="4.57154">
        <ele>1415</ele>
        <time>2018-11-01T16:33:26Z</time>
      </trkpt>
      <trkpt lat="45.38218" lon="4.57133">
        <ele>1413</ele>
        <time>2018-11-01T16:34:26Z</time>
      </trkpt>
      <trkpt lat="45.38226" lon="4.57111">
        <ele>1411</ele>
        <time>2018-11-01T16:35:26Z</time>
      </trkpt>
      <trkpt lat="45.38229" lon="4.57051">
        <ele>1406</ele>
        <time>2018-11-01T16:36:26Z</time>
      </trkpt>
      <trkpt lat="45.38221" lon="4.56988">
        <ele>1400</ele>
        <time>2018-11-01T16:37:26Z</time>
      </trkpt>
      <trkpt lat="45.38218" lon="4.56944">
        <ele>1396</ele>
        <time>2018-11-01T16:38:26Z</time>
      </trkpt>
      <trkpt lat="45.38211" lon="4.569">
        <ele>1392</ele>
        <time>2018-11-01T16:39:26Z</time>
      </trkpt>
      <trkpt lat="45.38209" lon="4.56853">
        <ele>1388</ele>
        <time>2018-11-01T16:40:26Z</time>
      </trkpt>
      <trkpt lat="45.38214" lon="4.56787">
        <ele>1383</ele>
        <time>2018-11-01T16:41:26Z</time>
      </trkpt>
      <trkpt lat="45.38185" lon="4.56779">
        <ele>1383</ele>
        <time>2018-11-01T16:42:26Z</time>
      </trkpt>
      <trkpt lat="45.38148" lon="4.56783">
        <ele>1383</ele>
        <time>2018-11-01T16:43:26Z</time>
      </trkpt>
      <trkpt lat="45.38132" lon="4.56791">
        <ele>1383</ele>
        <time>2018-11-01T16:44:26Z</time>
      </trkpt>
      <trkpt lat="45.38077" lon="4.56797">
        <ele>1382</ele>
        <time>2018-11-01T16:45:26Z</time>
      </trkpt>
      <trkpt lat="45.38067" lon="4.56795">
        <ele>1382</ele>
        <time>2018-11-01T16:46:26Z</time>
      </trkpt>
      <trkpt lat="45.38056" lon="4.568">
        <ele>1382</ele>
        <time>2018-11-01T16:47:26Z</time>
      </trkpt>
      <trkpt lat="45.38043" lon="4.56799">
        <ele>1382</ele>
        <time>2018-11-01T16:48:26Z</time>
      </trkpt>
      <trkpt lat="45.3804" lon="4.56793">
        <ele>1381</ele>
        <time>2018-11-01T16:49:26Z</time>
      </trkpt>
      <trkpt lat="45.3801" lon="4.56765">
        <ele>1379</ele>
        <time>2018-11-01T16:50:26Z</time>
      </trkpt>
      <trkpt lat="45.37996" lon="4.56758">
        <ele>1378</ele>
        <time>2018-11-01T16:51:26Z</time>
      </trkpt>
      <trkpt lat="45.37952" lon="4.56754">
        <ele>1377</ele>
        <time>2018-11-01T16:52:26Z</time>
      </trkpt>
      <trkpt lat="45.37907" lon="4.56732">
        <ele>1374</ele>
        <time>2018-11-01T16:53:26Z</time>
      </trkpt>
      <trkpt lat="45.37845" lon="4.56677">
        <ele>1368</ele>
        <time>2018-11-01T16:54:26Z</time>
      </trkpt>
      <trkpt lat="45.3783" lon="4.56667">
        <ele>1367</ele>
        <time>2018-11-01T16:55:26Z</time>
      </trkpt>
      <trkpt lat="45.37763" lon="4.56593">
        <ele>1360</ele>
        <time>2018-11-01T16:56:26Z</time>
      </trkpt>
      <trkpt lat="45.37696" lon="4.56508">
        <ele>1350</ele>
        <time>2018-11-01T16:57:26Z</time>
      </trkpt>
      <trkpt lat="45.37662" lon="4.56452">
        <ele>1343</ele>
        <time>2018-11-01T16:58:26Z</time>
      </trkpt>
      <trkpt lat="45.3763" lon="4.56419">
        <ele>1337</ele>
        <time>2018-11-01T16:59:26Z</time>
      </trkpt>
      <trkpt lat="45.37519" lon="4.56381">
        <ele>1329</ele>
        <time>2018-11-01T17:00:26Z</time>
      </trkpt>
      <trkpt lat="45.37393" lon="4.56268">
        <ele>1307</ele>
        <time>2018-11-01T17:01:26Z</time>
      </trkpt>
      <trkpt lat="45.374" lon="4.56295">
        <ele>1310</ele>
        <time>2018-11-01T17:02:26Z</time>
      </trkpt>
      <trkpt lat="45.37403" lon="4.56316">
        <ele>1311</ele>
        <time>2018-11-01T17:03:26Z</time>
      </trkpt>
      <trkpt lat="45.37402" lon="4.56341">
        <ele>1312</ele>
        <time>2018-11-01T17:04:26Z</time>
      </trkpt>
      <trkpt lat="45.37397" lon="4.56355">
        <ele>1311</ele>
        <time>2018-11-01T17:05:26Z</time>
      </trkpt>
      <trkpt lat="45.37398" lon="4.56402">
        <ele>1312</ele>
        <time>2018-11-01T17:06:26Z</time>
      </trkpt>
      <trkpt lat="45.37387" lon="4.56481">
        <ele>1316</ele>
        <time>2018-11-01T17:07:26Z</time>
      </trkpt>
      <trkpt lat="45.37387" lon="4.5651">
        <ele>1318</ele>
        <time>2018-11-01T17:08:26Z</time>
      </trkpt>
      <trkpt lat="45.37389" lon="4.56541">
        <ele>1320</ele>
        <time>2018-11-01T17:09:26Z</time>
      </trkpt>
      <trkpt lat="45.37389" lon="4.56541">
        <ele>1320</ele>
        <time>2018-11-01T17:10:26Z</time>
      </trkpt>
      <trkpt lat="45.37393" lon="4.56619">
        <ele>1323</ele>
        <time>2018-11-01T17:11:26Z</time>
      </trkpt>
      <trkpt lat="45.37392" lon="4.56635">
        <ele>1323</ele>
        <time>2018-11-01T17:12:26Z</time>
      </trkpt>
      <trkpt lat="45.37386" lon="4.56657">
        <ele>1323</ele>
        <time>2018-11-01T17:13:26Z</time>
      </trkpt>
      <trkpt lat="45.37386" lon="4.56687">
        <ele>1322</ele>
        <time>2018-11-01T17:14:26Z</time>
      </trkpt>
      <trkpt lat="45.37392" lon="4.56751">
        <ele>1321</ele>
        <time>2018-11-01T17:15:26Z</time>
      </trkpt>
      <trkpt lat="45.3742" lon="4.56813">
        <ele>1317</ele>
        <time>2018-11-01T17:16:26Z</time>
      </trkpt>
      <trkpt lat="45.37435" lon="4.56874">
        <ele>1311</ele>
        <time>2018-11-01T17:17:26Z</time>
      </trkpt>
      <trkpt lat="45.37447" lon="4.56912">
        <ele>1309</ele>
        <time>2018-11-01T17:18:26Z</time>
      </trkpt>
      <trkpt lat="45.37472" lon="4.5697">
        <ele>1309</ele>
        <time>2018-11-01T17:19:26Z</time>
      </trkpt>
      <trkpt lat="45.37485" lon="4.57027">
        <ele>1308</ele>
        <time>2018-11-01T17:20:26Z</time>
      </trkpt>
      <trkpt lat="45.37484" lon="4.57092">
        <ele>1306</ele>
        <time>2018-11-01T17:21:26Z</time>
      </trkpt>
      <trkpt lat="45.37504" lon="4.57293">
        <ele>1292</ele>
        <time>2018-11-01T17:22:26Z</time>
      </trkpt>
      <trkpt lat="45.376" lon="4.57375">
        <ele>1295</ele>
        <time>2018-11-01T17:23:26Z</time>
      </trkpt>
      <trkpt lat="45.37636" lon="4.57386">
        <ele>1298</ele>
        <time>2018-11-01T17:24:26Z</time>
      </trkpt>
      <trkpt lat="45.37675" lon="4.57423">
        <ele>1296</ele>
        <time>2018-11-01T17:25:26Z</time>
      </trkpt>
      <trkpt lat="45.37688" lon="4.57458">
        <ele>1294</ele>
        <time>2018-11-01T17:26:26Z</time>
      </trkpt>
      <trkpt lat="45.37764" lon="4.57515">
        <ele>1300</ele>
        <time>2018-11-01T17:27:26Z</time>
      </trkpt>
      <trkpt lat="45.37772" lon="4.57529">
        <ele>1302</ele>
        <time>2018-11-01T17:28:26Z</time>
      </trkpt>
      <trkpt lat="45.37745" lon="4.57575">
        <ele>1293</ele>
        <time>2018-11-01T17:29:26Z</time>
      </trkpt>
      <trkpt lat="45.37723" lon="4.57604">
        <ele>1292</ele>
        <time>2018-11-01T17:30:26Z</time>
      </trkpt>
      <trkpt lat="45.37697" lon="4.57631">
        <ele>1291</ele>
        <time>2018-11-01T17:31:26Z</time>
      </trkpt>
      <trkpt lat="45.37684" lon="4.57652">
        <ele>1292</ele>
        <time>2018-11-01T17:32:26Z</time>
      </trkpt>
      <trkpt lat="45.37684" lon="4.57652">
        <ele>1292</ele>
        <time>2018-11-01T17:33:26Z</time>
      </trkpt>
      <trkpt lat="45.37664" lon="4.57685">
        <ele>1293</ele>
        <time>2018-11-01T17:34:26Z</time>
      </trkpt>
      <trkpt lat="45.37645" lon="4.5771">
        <ele>1293</ele>
        <time>2018-11-01T17:35:26Z</time>
      </trkpt>
      <trkpt lat="45.37549" lon="4.57852">
        <ele>1294</ele>
        <time>2018-11-01T17:36:26Z</time>
      </trkpt>
      <trkpt lat="45.37486" lon="4.57922">
        <ele>1288</ele>
        <time>2018-11-01T17:37:26Z</time>
      </trkpt>
      <trkpt lat="45.37479" lon="4.57933">
        <ele>1288</ele>
        <time>2018-11-01T17:38:26Z</time>
      </trkpt>
      <trkpt lat="45.37478" lon="4.57945">
        <ele>1288</ele>
        <time>2018-11-01T17:39:26Z</time>
      </trkpt>
      <trkpt lat="45.37478" lon="4.57955">
        <ele>1289</ele>
        <time>2018-11-01T17:40:26Z</time>
      </trkpt>
      <trkpt lat="45.37482" lon="4.5796">
        <ele>1289</ele>
        <time>2018-11-01T17:41:26Z</time>
      </trkpt>
      <trkpt lat="45.37464" lon="4.5797">
        <ele>1288</ele>
        <time>2018-11-01T17:42:26Z</time>
      </trkpt>
      <trkpt lat="45.3743" lon="4.58">
        <ele>1284</ele>
        <time>2018-11-01T17:43:26Z</time>
      </trkpt>
      <trkpt lat="45.37401" lon="4.58029">
        <ele>1280</ele>
        <time>2018-11-01T17:44:26Z</time>
      </trkpt>
      <trkpt lat="45.37379" lon="4.58048">
        <ele>1277</ele>
        <time>2018-11-01T17:45:26Z</time>
      </trkpt>
      <trkpt lat="45.37351" lon="4.58078">
        <ele>1272</ele>
        <time>2018-11-01T17:46:26Z</time>
      </trkpt>
      <trkpt lat="45.37316" lon="4.58137">
        <ele>1262</ele>
        <time>2018-11-01T17:47:26Z</time>
      </trkpt>
      <trkpt lat="45.37284" lon="4.58199">
        <ele>1254</ele>
        <time>2018-11-01T17:48:26Z</time>
      </trkpt>
      <trkpt lat="45.37267" lon="4.58221">
        <ele>1250</ele>
        <time>2018-11-01T17:49:26Z</time>
      </trkpt>
      <trkpt lat="45.37215" lon="4.5828">
        <ele>1241</ele>
        <time>2018-11-01T17:50:26Z</time>
      </trkpt>
      <trkpt lat="45.37186" lon="4.5832">
        <ele>1236</ele>
        <time>2018-11-01T17:51:26Z</time>
      </trkpt>
      <trkpt lat="45.37157" lon="4.58355">
        <ele>1231</ele>
        <time>2018-11-01T17:52:26Z</time>
      </trkpt>
      <trkpt lat="45.37122" lon="4.58389">
        <ele>1224</ele>
        <time>2018-11-01T17:53:26Z</time>
      </trkpt>
      <trkpt lat="45.37098" lon="4.58427">
        <ele>1220</ele>
        <time>2018-11-01T17:54:26Z</time>
      </trkpt>
      <trkpt lat="45.37088" lon="4.58439">
        <ele>1218</ele>
        <time>2018-11-01T17:55:26Z</time>
      </trkpt>
      <trkpt lat="45.37035" lon="4.58487">
        <ele>1210</ele>
        <time>2018-11-01T17:56:26Z</time>
      </trkpt>
      <trkpt lat="45.37005" lon="4.58531">
        <ele>1208</ele>
        <time>2018-11-01T17:57:26Z</time>
      </trkpt>
      <trkpt lat="45.36978" lon="4.58554">
        <ele>1208</ele>
        <time>2018-11-01T17:58:26Z</time>
      </trkpt>
      <trkpt lat="45.3695" lon="4.58573">
        <ele>1209</ele>
        <time>2018-11-01T17:59:26Z</time>
      </trkpt>
      <trkpt lat="45.36902" lon="4.58598">
        <ele>1209</ele>
        <time>2018-11-01T18:00:26Z</time>
      </trkpt>
      <trkpt lat="45.36869" lon="4.5862">
        <ele>1209</ele>
        <time>2018-11-01T18:01:26Z</time>
      </trkpt>
      <trkpt lat="45.36796" lon="4.58663">
        <ele>1212</ele>
        <time>2018-11-01T18:02:26Z</time>
      </trkpt>
      <trkpt lat="45.36765" lon="4.58675">
        <ele>1211</ele>
        <time>2018-11-01T18:03:26Z</time>
      </trkpt>
      <trkpt lat="45.36722" lon="4.58699">
        <ele>1210</ele>
        <time>2018-11-01T18:04:26Z</time>
      </trkpt>
      <trkpt lat="45.36683" lon="4.58732">
        <ele>1210</ele>
        <time>2018-11-01T18:05:26Z</time>
      </trkpt>
      <trkpt lat="45.3665" lon="4.58784">
        <ele>1208</ele>
        <time>2018-11-01T18:06:26Z</time>
      </trkpt>
      <trkpt lat="45.36645" lon="4.58795">
        <ele>1207</ele>
        <time>2018-11-01T18:07:26Z</time>
      </trkpt>
      <trkpt lat="45.36549" lon="4.58706">
        <ele>1194</ele>
        <time>2018-11-01T18:08:26Z</time>
      </trkpt>
      <trkpt lat="45.35874" lon="4.58599">
        <ele>1091</ele>
        <time>2018-11-01T18:09:26Z</time>
      </trkpt>
      <trkpt lat="45.35874" lon="4.58598">
        <ele>1091</ele>
        <time>2018-11-01T18:10:26Z</time>
      </trkpt>
      <trkpt lat="45.35883" lon="4.58596">
        <ele>1091</ele>
        <time>2018-11-01T18:11:26Z</time>
      </trkpt>
      <trkpt lat="45.35878" lon="4.58622">
        <ele>1090</ele>
        <time>2018-11-01T18:12:26Z</time>
      </trkpt>
      <trkpt lat="45.35883" lon="4.5864">
        <ele>1089</ele>
        <time>2018-11-01T18:13:26Z</time>
      </trkpt>
      <trkpt lat="45.3588" lon="4.58687">
        <ele>1086</ele>
        <time>2018-11-01T18:14:26Z</time>
      </trkpt>
      <trkpt lat="45.35883" lon="4.58736">
        <ele>1081</ele>
        <time>2018-11-01T18:15:26Z</time>
      </trkpt>
      <trkpt lat="45.35902" lon="4.58783">
        <ele>1076</ele>
        <time>2018-11-01T18:16:26Z</time>
      </trkpt>
      <trkpt lat="45.35924" lon="4.58819">
        <ele>1074</ele>
        <time>2018-11-01T18:17:26Z</time>
      </trkpt>
      <trkpt lat="45.35946" lon="4.58861">
        <ele>1071</ele>
        <time>2018-11-01T18:18:26Z</time>
      </trkpt>
      <trkpt lat="45.35974" lon="4.58893">
        <ele>1071</ele>
        <time>2018-11-01T18:19:26Z</time>
      </trkpt>
      <trkpt lat="45.35994" lon="4.5892">
        <ele>1071</ele>
        <time>2018-11-01T18:20:26Z</time>
      </trkpt>
      <trkpt lat="45.35999" lon="4.58932">
        <ele>1070</ele>
        <time>2018-11-01T18:21:26Z</time>
      </trkpt>
      <trkpt lat="45.35996" lon="4.58945">
        <ele>1069</ele>
        <time>2018-11-01T18:22:26Z</time>
      </trkpt>
      <trkpt lat="45.35981" lon="4.58944">
        <ele>1066</ele>
        <time>2018-11-01T18:23:26Z</time>
      </trkpt>
      <trkpt lat="45.35949" lon="4.58935">
        <ele>1061</ele>
        <time>2018-11-01T18:24:26Z</time>
      </trkpt>
      <trkpt lat="45.35935" lon="4.58925">
        <ele>1059</ele>
        <time>2018-11-01T18:25:26Z</time>
      </trkpt>
      <trkpt lat="45.35935" lon="4.58925">
        <ele>1059</ele>
        <time>2018-11-01T18:26:26Z</time>
      </trkpt>
      <trkpt lat="45.35903" lon="4.58899">
        <ele>1057</ele>
        <time>2018-11-01T18:27:26Z</time>
      </trkpt>
      <trkpt lat="45.35886" lon="4.58894">
        <ele>1055</ele>
        <time>2018-11-01T18:28:26Z</time>
      </trkpt>
      <trkpt lat="45.35861" lon="4.58898">
        <ele>1051</ele>
        <time>2018-11-01T18:29:26Z</time>
      </trkpt>
      <trkpt lat="45.35828" lon="4.58898">
        <ele>1046</ele>
        <time>2018-11-01T18:30:26Z</time>
      </trkpt>
      <trkpt lat="45.35803" lon="4.58892">
        <ele>1044</ele>
        <time>2018-11-01T18:31:26Z</time>
      </trkpt>
      <trkpt lat="45.35789" lon="4.58895">
        <ele>1042</ele>
        <time>2018-11-01T18:32:26Z</time>
      </trkpt>
      <trkpt lat="45.35774" lon="4.58903">
        <ele>1038</ele>
        <time>2018-11-01T18:33:26Z</time>
      </trkpt>
      <trkpt lat="45.35756" lon="4.58926">
        <ele>1033</ele>
        <time>2018-11-01T18:34:26Z</time>
      </trkpt>
      <trkpt lat="45.35737" lon="4.58936">
        <ele>1032</ele>
        <time>2018-11-01T18:35:26Z</time>
      </trkpt>
      <trkpt lat="45.35723" lon="4.58931">
        <ele>1031</ele>
        <time>2018-11-01T18:36:26Z</time>
      </trkpt>
      <trkpt lat="45.35714" lon="4.58949">
        <ele>1031</ele>
        <time>2018-11-01T18:37:26Z</time>
      </trkpt>
      <trkpt lat="45.35706" lon="4.58974">
        <ele>1030</ele>
        <time>2018-11-01T18:38:26Z</time>
      </trkpt>
      <trkpt lat="45.35688" lon="4.59002">
        <ele>1030</ele>
        <time>2018-11-01T18:39:26Z</time>
      </trkpt>
      <trkpt lat="45.3566" lon="4.59013">
        <ele>1031</ele>
        <time>2018-11-01T18:40:26Z</time>
      </trkpt>
      <trkpt lat="45.35651" lon="4.59012">
        <ele>1031</ele>
        <time>2018-11-01T18:41:26Z</time>
      </trkpt>
      <trkpt lat="45.35651" lon="4.59012">
        <ele>1031</ele>
        <time>2018-11-01T18:42:26Z</time>
      </trkpt>
      <trkpt lat="45.3562" lon="4.59008">
        <ele>1030</ele>
        <time>2018-11-01T18:43:26Z</time>
      </trkpt>
      <trkpt lat="45.35578" lon="4.58996">
        <ele>1027</ele>
        <time>2018-11-01T18:44:26Z</time>
      </trkpt>
      <trkpt lat="45.35537" lon="4.58993">
        <ele>1025</ele>
        <time>2018-11-01T18:45:26Z</time>
      </trkpt>
      <trkpt lat="45.35478" lon="4.58995">
        <ele>1023</ele>
        <time>2018-11-01T18:46:26Z</time>
      </trkpt>
      <trkpt lat="45.35377" lon="4.5901">
        <ele>1024</ele>
        <time>2018-11-01T18:47:26Z</time>
      </trkpt>
      <trkpt lat="45.35348" lon="4.59009">
        <ele>1022</ele>
        <time>2018-11-01T18:48:26Z</time>
      </trkpt>
      <trkpt lat="45.35332" lon="4.59001">
        <ele>1019</ele>
        <time>2018-11-01T18:49:26Z</time>
      </trkpt>
      <trkpt lat="45.35314" lon="4.58989">
        <ele>1014</ele>
        <time>2018-11-01T18:50:26Z</time>
      </trkpt>
      <trkpt lat="45.35146" lon="4.59074">
        <ele>1006</ele>
        <time>2018-11-01T18:51:26Z</time>
      </trkpt>
      <trkpt lat="45.34974" lon="4.59206">
        <ele>985</ele>
        <time>2018-11-01T18:52:26Z</time>
      </trkpt>
      <trkpt lat="45.34974" lon="4.59206">
        <ele>985</ele>
        <time>2018-11-01T18:53:26Z</time>
      </trkpt>
      <trkpt lat="45.34859" lon="4.59809">
        <ele>944</ele>
        <time>2018-11-01T18:54:26Z</time>
      </trkpt>
      <trkpt lat="45.34838" lon="4.59843">
        <ele>939</ele>
        <time>2018-11-01T18:55:26Z</time>
      </trkpt>
      <trkpt lat="45.34832" lon="4.59837">
        <ele>938</ele>
        <time>2018-11-01T18:56:26Z</time>
      </trkpt>
      <trkpt lat="45.34809" lon="4.59879">
        <ele>931</ele>
        <time>2018-11-01T18:57:26Z</time>
      </trkpt>
      <trkpt lat="45.3481" lon="4.59894">
        <ele>930</ele>
        <time>2018-11-01T18:58:26Z</time>
      </trkpt>
      <trkpt lat="45.34798" lon="4.59901">
        <ele>928</ele>
        <time>2018-11-01T18:59:26Z</time>
      </trkpt>
      <trkpt lat="45.34694" lon="4.59934">
        <ele>912</ele>
        <time>2018-11-01T19:00:26Z</time>
      </trkpt>
      <trkpt lat="45.34694" lon="4.59934">
        <ele>912</ele>
        <time>2018-11-01T19:01:26Z</time>
      </trkpt>
      <trkpt lat="45.34655" lon="4.59942">
        <ele>906</ele>
        <time>2018-11-01T19:02:26Z</time>
      </trkpt>
      <trkpt lat="45.34632" lon="4.59954">
        <ele>900</ele>
        <time>2018-11-01T19:03:26Z</time>
      </trkpt>
      <trkpt lat="45.34623" lon="4.59955">
        <ele>899</ele>
        <time>2018-11-01T19:04:26Z</time>
      </trkpt>
      <trkpt lat="45.34582" lon="4.5993">
        <ele>895</ele>
        <time>2018-11-01T19:05:26Z</time>
      </trkpt>
      <trkpt lat="45.34528" lon="4.59865">
        <ele>884</ele>
        <time>2018-11-01T19:06:26Z</time>
      </trkpt>
      <trkpt lat="45.34523" lon="4.59848">
        <ele>884</ele>
        <time>2018-11-01T19:07:26Z</time>
      </trkpt>
      <trkpt lat="45.34517" lon="4.59844">
        <ele>883</ele>
        <time>2018-11-01T19:08:26Z</time>
      </trkpt>
      <trkpt lat="45.34508" lon="4.59875">
        <ele>880</ele>
        <time>2018-11-01T19:09:26Z</time>
      </trkpt>
      <trkpt lat="45.34504" lon="4.59907">
        <ele>877</ele>
        <time>2018-11-01T19:10:26Z</time>
      </trkpt>
      <trkpt lat="45.34506" lon="4.5994">
        <ele>875</ele>
        <time>2018-11-01T19:11:26Z</time>
      </trkpt>
      <trkpt lat="45.3451" lon="4.59957">
        <ele>874</ele>
        <time>2018-11-01T19:12:26Z</time>
      </trkpt>
      <trkpt lat="45.3451" lon="4.59957">
        <ele>874</ele>
        <time>2018-11-01T19:13:26Z</time>
      </trkpt>
      <trkpt lat="45.34524" lon="4.60027">
        <ele>869</ele>
        <time>2018-11-01T19:14:26Z</time>
      </trkpt>
      <trkpt lat="45.34531" lon="4.60077">
        <ele>865</ele>
        <time>2018-11-01T19:15:26Z</time>
      </trkpt>
      <trkpt lat="45.34528" lon="4.60119">
        <ele>860</ele>
        <time>2018-11-01T19:16:26Z</time>
      </trkpt>
      <trkpt lat="45.34531" lon="4.60129">
        <ele>860</ele>
        <time>2018-11-01T19:17:26Z</time>
      </trkpt>
      <trkpt lat="45.34526" lon="4.60125">
        <ele>859</ele>
        <time>2018-11-01T19:18:26Z</time>
      </trkpt>
      <trkpt lat="45.34521" lon="4.60129">
        <ele>858</ele>
        <time>2018-11-01T19:19:26Z</time>
      </trkpt>
      <trkpt lat="45.34514" lon="4.60144">
        <ele>855</ele>
        <time>2018-11-01T19:20:26Z</time>
      </trkpt>
      <trkpt lat="45.345" lon="4.6026">
        <ele>847</ele>
        <time>2018-11-01T19:21:26Z</time>
      </trkpt>
      <trkpt lat="45.34488" lon="4.60274">
        <ele>844</ele>
        <time>2018-11-01T19:22:26Z</time>
      </trkpt>
      <trkpt lat="45.34477" lon="4.60274">
        <ele>842</ele>
        <time>2018-11-01T19:23:26Z</time>
      </trkpt>
      <trkpt lat="45.34474" lon="4.60277">
        <ele>841</ele>
        <time>2018-11-01T19:24:26Z</time>
      </trkpt>
      <trkpt lat="45.34473" lon="4.60287">
        <ele>841</ele>
        <time>2018-11-01T19:25:26Z</time>
      </trkpt>
      <trkpt lat="45.34473" lon="4.60287">
        <ele>841</ele>
        <time>2018-11-01T19:26:26Z</time>
      </trkpt>
      <trkpt lat="45.34474" lon="4.60277">
        <ele>841</ele>
        <time>2018-11-01T19:27:26Z</time>
      </trkpt>
      <trkpt lat="45.34465" lon="4.60278">
        <ele>840</ele>
        <time>2018-11-01T19:28:26Z</time>
      </trkpt>
      <trkpt lat="45.34441" lon="4.6026">
        <ele>835</ele>
        <time>2018-11-01T19:29:26Z</time>
      </trkpt>
      <trkpt lat="45.34432" lon="4.6026">
        <ele>833</ele>
        <time>2018-11-01T19:30:26Z</time>
      </trkpt>
      <trkpt lat="45.34424" lon="4.60251">
        <ele>832</ele>
        <time>2018-11-01T19:31:26Z</time>
      </trkpt>
      <trkpt lat="45.34419" lon="4.60225">
        <ele>830</ele>
        <time>2018-11-01T19:32:26Z</time>
      </trkpt>
      <trkpt lat="45.34415" lon="4.6019">
        <ele>829</ele>
        <time>2018-11-01T19:33:26Z</time>
      </trkpt>
      <trkpt lat="45.34414" lon="4.60218">
        <ele>829</ele>
        <time>2018-11-01T19:34:26Z</time>
      </trkpt>
      <trkpt lat="45.34402" lon="4.60313">
        <ele>829</ele>
        <time>2018-11-01T19:35:26Z</time>
      </trkpt>
      <trkpt lat="45.34402" lon="4.60333">
        <ele>830</ele>
        <time>2018-11-01T19:36:26Z</time>
      </trkpt>
      <trkpt lat="45.34409" lon="4.60354">
        <ele>830</ele>
        <time>2018-11-01T19:37:26Z</time>
      </trkpt>
      <trkpt lat="45.34442" lon="4.60394">
        <ele>832</ele>
        <time>2018-11-01T19:38:26Z</time>
      </trkpt>
      <trkpt lat="45.34438" lon="4.60445">
        <ele>828</ele>
        <time>2018-11-01T19:39:26Z</time>
      </trkpt>
      <trkpt lat="45.34442" lon="4.60462">
        <ele>826</ele>
        <time>2018-11-01T19:40:26Z</time>
      </trkpt>
      <trkpt lat="45.3447" lon="4.60491">
        <ele>826</ele>
        <time>2018-11-01T19:41:26Z</time>
      </trkpt>
      <trkpt lat="45.34486" lon="4.60515">
        <ele>824</ele>
        <time>2018-11-01T19:42:26Z</time>
      </trkpt>
      <trkpt lat="45.34497" lon="4.60545">
        <ele>820</ele>
        <time>2018-11-01T19:43:26Z</time>
      </trkpt>
      <trkpt lat="45.34514" lon="4.6058">
        <ele>815</ele>
        <time>2018-11-01T19:44:26Z</time>
      </trkpt>
      <trkpt lat="45.34552" lon="4.60674">
        <ele>802</ele>
        <time>2018-11-01T19:45:26Z</time>
      </trkpt>
      <trkpt lat="45.34557" lon="4.60683">
        <ele>801</ele>
        <time>2018-11-01T19:46:26Z</time>
      </trkpt>
      <trkpt lat="45.34557" lon="4.60683">
        <ele>801</ele>
        <time>2018-11-01T19:47:26Z</time>
      </trkpt>
      <trkpt lat="45.34587" lon="4.60733">
        <ele>794</ele>
        <time>2018-11-01T19:48:26Z</time>
      </trkpt>
      <trkpt lat="45.34657" lon="4.60789">
        <ele>784</ele>
        <time>2018-11-01T19:49:26Z</time>
      </trkpt>
      <trkpt lat="45.3466" lon="4.60799">
        <ele>783</ele>
        <time>2018-11-01T19:50:26Z</time>
      </trkpt>
      <trkpt lat="45.34657" lon="4.60819">
        <ele>781</ele>
        <time>2018-11-01T19:51:26Z</time>
      </trkpt>
      <trkpt lat="45.34661" lon="4.60835">
        <ele>779</ele>
        <time>2018-11-01T19:52:26Z</time>
      </trkpt>
      <trkpt lat="45.34674" lon="4.60848">
        <ele>780</ele>
        <time>2018-11-01T19:53:26Z</time>
      </trkpt>
      <trkpt lat="45.34687" lon="4.60857">
        <ele>781</ele>
        <time>2018-11-01T19:54:26Z</time>
      </trkpt>
      <trkpt lat="45.34693" lon="4.60874">
        <ele>782</ele>
        <time>2018-11-01T19:55:26Z</time>
      </trkpt>
      <trkpt lat="45.34688" lon="4.60889">
        <ele>781</ele>
        <time>2018-11-01T19:56:26Z</time>
      </trkpt>
      <trkpt lat="45.34661" lon="4.60909">
        <ele>779</ele>
        <time>2018-11-01T19:57:26Z</time>
      </trkpt>
      <trkpt lat="45.34633" lon="4.60935">
        <ele>777</ele>
        <time>2018-11-01T19:58:26Z</time>
      </trkpt>
      <trkpt lat="45.34618" lon="4.60969">
        <ele>777</ele>
        <time>2018-11-01T19:59:26Z</time>
      </trkpt>
      <trkpt lat="45.34614" lon="4.60994">
        <ele>777</ele>
        <time>2018-11-01T20:00:26Z</time>
      </trkpt>
      <trkpt lat="45.34613" lon="4.61019">
        <ele>777</ele>
        <time>2018-11-01T20:01:26Z</time>
      </trkpt>
      <trkpt lat="45.34619" lon="4.61039">
        <ele>778</ele>
        <time>2018-11-01T20:02:26Z</time>
      </trkpt>
      <trkpt lat="45.34644" lon="4.61088">
        <ele>784</ele>
        <time>2018-11-01T20:03:26Z</time>
      </trkpt>
      <trkpt lat="45.34659" lon="4.61094">
        <ele>787</ele>
        <time>2018-11-01T20:04:26Z</time>
      </trkpt>
      <trkpt lat="45.34659" lon="4.61094">
        <ele>787</ele>
        <time>2018-11-01T20:05:26Z</time>
      </trkpt>
      <trkpt lat="45.34665" lon="4.61096">
        <ele>788</ele>
        <time>2018-11-01T20:06:26Z</time>
      </trkpt>
      <trkpt lat="45.34683" lon="4.6111">
        <ele>791</ele>
        <time>2018-11-01T20:07:26Z</time>
      </trkpt>
      <trkpt lat="45.34701" lon="4.61116">
        <ele>794</ele>
        <time>2018-11-01T20:08:26Z</time>
      </trkpt>
      <trkpt lat="45.34716" lon="4.61126">
        <ele>796</ele>
        <time>2018-11-01T20:09:26Z</time>
      </trkpt>
      <trkpt lat="45.34756" lon="4.61165">
        <ele>803</ele>
        <time>2018-11-01T20:10:26Z</time>
      </trkpt>
      <trkpt lat="45.34767" lon="4.61188">
        <ele>805</ele>
        <time>2018-11-01T20:11:26Z</time>
      </trkpt>
      <trkpt lat="45.34798" lon="4.61241">
        <ele>810</ele>
        <time>2018-11-01T20:12:26Z</time>
      </trkpt>
      <trkpt lat="45.34812" lon="4.61251">
        <ele>812</ele>
        <time>2018-11-01T20:13:26Z</time>
      </trkpt>
      <trkpt lat="45.34827" lon="4.61251">
        <ele>813</ele>
        <time>2018-11-01T20:14:26Z</time>
      </trkpt>
      <trkpt lat="45.34831" lon="4.61272">
        <ele>814</ele>
        <time>2018-11-01T20:15:26Z</time>
      </trkpt>
      <trkpt lat="45.34855" lon="4.61267">
        <ele>817</ele>
        <time>2018-11-01T20:16:26Z</time>
      </trkpt>
      <trkpt lat="45.34884" lon="4.61253">
        <ele>821</ele>
        <time>2018-11-01T20:17:26Z</time>
      </trkpt>
      <trkpt lat="45.34901" lon="4.61252">
        <ele>824</ele>
        <time>2018-11-01T20:18:26Z</time>
      </trkpt>
      <trkpt lat="45.34894" lon="4.61259">
        <ele>823</ele>
        <time>2018-11-01T20:19:26Z</time>
      </trkpt>
      <trkpt lat="45.34873" lon="4.61285">
        <ele>820</ele>
        <time>2018-11-01T20:20:26Z</time>
      </trkpt>
      <trkpt lat="45.34911" lon="4.6138">
        <ele>823</ele>
        <time>2018-11-01T20:21:26Z</time>
      </trkpt>
      <trkpt lat="45.34908" lon="4.61412">
        <ele>823</ele>
        <time>2018-11-01T20:22:26Z</time>
      </trkpt>
      <trkpt lat="45.34908" lon="4.61412">
        <ele>823</ele>
        <time>2018-11-01T20:23:26Z</time>
      </trkpt>
      <trkpt lat="45.34911" lon="4.6138">
        <ele>823</ele>
        <time>2018-11-01T20:24:26Z</time>
      </trkpt>
      <trkpt lat="45.34873" lon="4.61285">
        <ele>820</ele>
        <time>2018-11-01T20:25:26Z</time>
      </trkpt>
      <trkpt lat="45.34894" lon="4.61259">
        <ele>823</ele>
        <time>2018-11-01T20:26:26Z</time>
      </trkpt>
      <trkpt lat="45.34901" lon="4.61252">
        <ele>824</ele>
        <time>2018-11-01T20:27:26Z</time>
      </trkpt>
      <trkpt lat="45.34923" lon="4.61244">
        <ele>827</ele>
        <time>2018-11-01T20:28:26Z</time>
      </trkpt>
      <trkpt lat="45.34935" lon="4.61263">
        <ele>829</ele>
        <time>2018-11-01T20:29:26Z</time>
      </trkpt>
      <trkpt lat="45.3494" lon="4.61278">
        <ele>830</ele>
        <time>2018-11-01T20:30:26Z</time>
      </trkpt>
      <trkpt lat="45.34977" lon="4.61363">
        <ele>832</ele>
        <time>2018-11-01T20:31:26Z</time>
      </trkpt>
      <trkpt lat="45.34971" lon="4.61381">
        <ele>831</ele>
        <time>2018-11-01T20:32:26Z</time>
      </trkpt>
      <trkpt lat="45.34965" lon="4.61412">
        <ele>830</ele>
        <time>2018-11-01T20:33:26Z</time>
      </trkpt>
      <trkpt lat="45.34902" lon="4.61682">
        <ele>832</ele>
        <time>2018-11-01T20:34:26Z</time>
      </trkpt>
      <trkpt lat="45.34912" lon="4.61686">
        <ele>833</ele>
        <time>2018-11-01T20:35:26Z</time>
      </trkpt>
      <trkpt lat="45.34939" lon="4.61675">
        <ele>835</ele>
        <time>2018-11-01T20:36:26Z</time>
      </trkpt>
      <trkpt lat="45.34971" lon="4.61683">
        <ele>838</ele>
        <time>2018-11-01T20:37:26Z</time>
      </trkpt>
      <trkpt lat="45.34996" lon="4.61682">
        <ele>840</ele>
        <time>2018-11-01T20:38:26Z</time>
      </trkpt>
      <trkpt lat="45.35023" lon="4.61716">
        <ele>842</ele>
        <time>2018-11-01T20:39:26Z</time>
      </trkpt>
      <trkpt lat="45.35063" lon="4.6172">
        <ele>846</ele>
        <time>2018-11-01T20:40:26Z</time>
      </trkpt>
      <trkpt lat="45.35067" lon="4.61724">
        <ele>846</ele>
        <time>2018-11-01T20:41:26Z</time>
      </trkpt>
      <trkpt lat="45.3506" lon="4.61738">
        <ele>845</ele>
        <time>2018-11-01T20:42:26Z</time>
      </trkpt>
      <trkpt lat="45.3505" lon="4.61855">
        <ele>841</ele>
        <time>2018-11-01T20:43:26Z</time>
      </trkpt>
      <trkpt lat="45.3505" lon="4.61856">
        <ele>841</ele>
        <time>2018-11-01T20:44:26Z</time>
      </trkpt>
      <trkpt lat="45.35043" lon="4.6187">
        <ele>841</ele>
        <time>2018-11-01T20:45:26Z</time>
      </trkpt>
      <trkpt lat="45.35036" lon="4.61925">
        <ele>842</ele>
        <time>2018-11-01T20:46:26Z</time>
      </trkpt>
      <trkpt lat="45.34994" lon="4.62067">
        <ele>840</ele>
        <time>2018-11-01T20:47:26Z</time>
      </trkpt>
      <trkpt lat="45.34971" lon="4.62094">
        <ele>839</ele>
        <time>2018-11-01T20:48:26Z</time>
      </trkpt>
      <trkpt lat="45.3493" lon="4.62119">
        <ele>836</ele>
        <time>2018-11-01T20:49:26Z</time>
      </trkpt>
      <trkpt lat="45.34922" lon="4.62242">
        <ele>834</ele>
        <time>2018-11-01T20:50:26Z</time>
      </trkpt>
      <trkpt lat="45.34922" lon="4.62242">
        <ele>834</ele>
        <time>2018-11-01T20:51:26Z</time>
      </trkpt>
      <trkpt lat="45.34919" lon="4.62282">
        <ele>834</ele>
        <time>2018-11-01T20:52:26Z</time>
      </trkpt>
      <trkpt lat="45.34878" lon="4.62479">
        <ele>836</ele>
        <time>2018-11-01T20:53:26Z</time>
      </trkpt>
      <trkpt lat="45.34878" lon="4.62573">
        <ele>838</ele>
        <time>2018-11-01T20:54:26Z</time>
      </trkpt>
      <trkpt lat="45.34887" lon="4.62645">
        <ele>840</ele>
        <time>2018-11-01T20:55:26Z</time>
      </trkpt>
      <trkpt lat="45.3489" lon="4.62694">
        <ele>841</ele>
        <time>2018-11-01T20:56:26Z</time>
      </trkpt>
      <trkpt lat="45.3489" lon="4.62706">
        <ele>842</ele>
        <time>2018-11-01T20:57:26Z</time>
      </trkpt>
      <trkpt lat="45.34895" lon="4.62707">
        <ele>842</ele>
        <time>2018-11-01T20:58:26Z</time>
      </trkpt>
      <trkpt lat="45.34974" lon="4.62519">
        <ele>856</ele>
        <time>2018-11-01T20:59:26Z</time>
      </trkpt>
      <trkpt lat="45.34974" lon="4.62519">
        <ele>856</ele>
        <time>2018-11-01T21:00:26Z</time>
      </trkpt>
      <trkpt lat="45.35279" lon="4.62427">
        <ele>891</ele>
        <time>2018-11-01T21:01:26Z</time>
      </trkpt>
      <trkpt lat="45.35361" lon="4.62418">
        <ele>899</ele>
        <time>2018-11-01T21:02:26Z</time>
      </trkpt>
      <trkpt lat="45.35364" lon="4.62437">
        <ele>901</ele>
        <time>2018-11-01T21:03:26Z</time>
      </trkpt>
      <trkpt lat="45.35375" lon="4.62479">
        <ele>907</ele>
        <time>2018-11-01T21:04:26Z</time>
      </trkpt>
      <trkpt lat="45.35376" lon="4.62463">
        <ele>905</ele>
        <time>2018-11-01T21:05:26Z</time>
      </trkpt>
      <trkpt lat="45.35382" lon="4.62449">
        <ele>905</ele>
        <time>2018-11-01T21:06:26Z</time>
      </trkpt>
      <trkpt lat="45.35415" lon="4.62416">
        <ele>907</ele>
        <time>2018-11-01T21:07:26Z</time>
      </trkpt>
      <trkpt lat="45.35427" lon="4.62418">
        <ele>909</ele>
        <time>2018-11-01T21:08:26Z</time>
      </trkpt>
      <trkpt lat="45.35457" lon="4.62448">
        <ele>917</ele>
        <time>2018-11-01T21:09:26Z</time>
      </trkpt>
      <trkpt lat="45.35521" lon="4.62436">
        <ele>925</ele>
        <time>2018-11-01T21:10:26Z</time>
      </trkpt>
      <trkpt lat="45.35562" lon="4.62456">
        <ele>930</ele>
        <time>2018-11-01T21:11:26Z</time>
      </trkpt>
      <trkpt lat="45.35562" lon="4.62452">
        <ele>930</ele>
        <time>2018-11-01T21:12:26Z</time>
      </trkpt>
      <trkpt lat="45.35745" lon="4.62559">
        <ele>935</ele>
        <time>2018-11-01T21:13:26Z</time>
      </trkpt>
      <trkpt lat="45.35745" lon="4.62559">
        <ele>935</ele>
        <time>2018-11-01T21:14:26Z</time>
      </trkpt>
      <trkpt lat="45.35874" lon="4.62559">
        <ele>927</ele>
        <time>2018-11-01T21:15:26Z</time>
      </trkpt>
      <trkpt lat="45.35874" lon="4.62559">
        <ele>927</ele>
        <time>2018-11-01T21:16:26Z</time>
      </trkpt>
      <trkpt lat="45.35858" lon="4.62824">
        <ele>897</ele>
        <time>2018-11-01T21:17:26Z</time>
      </trkpt>
      <trkpt lat="45.35858" lon="4.62824">
        <ele>897</ele>
        <time>2018-11-01T21:18:26Z</time>
      </trkpt>
      <trkpt lat="45.35897" lon="4.62868">
        <ele>894</ele>
        <time>2018-11-01T21:19:26Z</time>
      </trkpt>
      <trkpt lat="45.35897" lon="4.62868">
        <ele>894</ele>
        <time>2018-11-01T21:20:26Z</time>
      </trkpt>
      <trkpt lat="45.35903" lon="4.62955">
        <ele>891</ele>
        <time>2018-11-01T21:21:26Z</time>
      </trkpt>
      <trkpt lat="45.35903" lon="4.62955">
        <ele>891</ele>
        <time>2018-11-01T21:22:26Z</time>
      </trkpt>
      <trkpt lat="45.36035" lon="4.62743">
        <ele>876</ele>
        <time>2018-11-01T21:23:26Z</time>
      </trkpt>
      <trkpt lat="45.36035" lon="4.62743">
        <ele>876</ele>
        <time>2018-11-01T21:24:26Z</time>
      </trkpt>
      <trkpt lat="45.3614" lon="4.62677">
        <ele>863</ele>
        <time>2018-11-01T21:25:26Z</time>
      </trkpt>
      <trkpt lat="45.3614" lon="4.62677">
        <ele>863</ele>
        <time>2018-11-01T21:26:26Z</time>
      </trkpt>
      <trkpt lat="45.36208" lon="4.62703">
        <ele>854</ele>
        <time>2018-11-01T21:27:26Z</time>
      </trkpt>
      <trkpt lat="45.36208" lon="4.62703">
        <ele>854</ele>
        <time>2018-11-01T21:28:26Z</time>
      </trkpt>
      <trkpt lat="45.36276" lon="4.62788">
        <ele>833</ele>
        <time>2018-11-01T21:29:26Z</time>
      </trkpt>
      <trkpt lat="45.36276" lon="4.62788">
        <ele>833</ele>
        <time>2018-11-01T21:30:26Z</time>
      </trkpt>
      <trkpt lat="45.36364" lon="4.62813">
        <ele>835</ele>
        <time>2018-11-01T21:31:26Z</time>
      </trkpt>
      <trkpt lat="45.36364" lon="4.62813">
        <ele>835</ele>
        <time>2018-11-01T21:32:26Z</time>
      </trkpt>
      <trkpt lat="45.36461" lon="4.62984">
        <ele>814</ele>
        <time>2018-11-01T21:33:26Z</time>
      </trkpt>
      <trkpt lat="45.36461" lon="4.62984">
        <ele>814</ele>
        <time>2018-11-01T21:34:26Z</time>
      </trkpt>
      <trkpt lat="45.36637" lon="4.63094">
        <ele>808</ele>
        <time>2018-11-01T21:35:26Z</time>
      </trkpt>
      <trkpt lat="45.36637" lon="4.63094">
        <ele>808</ele>
        <time>2018-11-01T21:36:26Z</time>
      </trkpt>
      <trkpt lat="45.36825" lon="4.63165">
        <ele>793</ele>
        <time>2018-11-01T21:37:26Z</time>
      </trkpt>
      <trkpt lat="45.36825" lon="4.63165">
        <ele>793</ele>
        <time>2018-11-01T21:38:26Z</time>
      </trkpt>
      <trkpt lat="45.36994" lon="4.63084">
        <ele>810</ele>
        <time>2018-11-01T21:39:26Z</time>
      </trkpt>
      <trkpt lat="45.36994" lon="4.63084">
        <ele>810</ele>
        <time>2018-11-01T21:40:26Z</time>
      </trkpt>
      <trkpt lat="45.36992" lon="4.6337">
        <ele>796</ele>
        <time>2018-11-01T21:41:26Z</time>
      </trkpt>
      <trkpt lat="45.36992" lon="4.6337">
        <ele>796</ele>
        <time>2018-11-01T21:42:26Z</time>
      </trkpt>
      <trkpt lat="45.37037" lon="4.63553">
        <ele>785</ele>
        <time>2018-11-01T21:43:26Z</time>
      </trkpt>
      <trkpt lat="45.37037" lon="4.63553">
        <ele>785</ele>
        <time>2018-11-01T21:44:26Z</time>
      </trkpt>
      <trkpt lat="45.3751" lon="4.63165">
        <ele>783</ele>
        <time>2018-11-01T21:45:26Z</time>
      </trkpt>
      <trkpt lat="45.3751" lon="4.63165">
        <ele>783</ele>
        <time>2018-11-01T21:46:26Z</time>
      </trkpt>
      <trkpt lat="45.37639" lon="4.63627">
        <ele>815</ele>
        <time>2018-11-01T21:47:26Z</time>
      </trkpt>
      <trkpt lat="45.37639" lon="4.63627">
        <ele>815</ele>
        <time>2018-11-01T21:48:26Z</time>
      </trkpt>
      <trkpt lat="45.3771" lon="4.6405">
        <ele>805</ele>
        <time>2018-11-01T21:49:26Z</time>
      </trkpt>
    </trkseg>
  </trk>
</gpx>